Time,TemperatureF,DewpointF,PressureIn,WindDirection,WindDirectionDegrees,WindSpeedMPH,WindSpeedGustMPH,Humidity,HourlyPrecipIn,Conditions,Clouds,dailyrainin,SoftwareType,DateUTC
2013-01-20 00:03:00,41.0,31.0,29.78,West,272,7.0,-999.0,66,-99.99,,,-99.99,,2013-01-20 05:03:00,
2013-01-20 00:12:00,41.0,31.0,29.78,West,272,7.0,-999.0,66,-99.99,,,-99.99,,2013-01-20 05:12:00,
2013-01-20 00:22:00,40.0,27.0,29.78,West,261,9.0,-999.0,60,-99.99,,,-99.99,,2013-01-20 05:22:00,
2013-01-20 00:32:00,40.0,25.0,29.78,SW,232,11.0,-999.0,55,-99.99,,,-99.99,,2013-01-20 05:32:00,
2013-01-20 00:42:00,40.0,25.0,29.78,SW,232,11.0,-999.0,55,-99.99,,,-99.99,,2013-01-20 05:42:00,
2013-01-20 00:53:00,39.0,23.0,29.79,WNW,299,10.0,-999.0,53,-99.99,,,-99.99,,2013-01-20 05:53:00,
2013-01-20 01:02:00,39.0,23.0,29.80,WNW,282,9.0,-999.0,52,-99.99,,,-99.99,,2013-01-20 06:02:00,
2013-01-20 01:12:00,39.0,23.0,29.80,WNW,282,9.0,-999.0,52,-99.99,,,-99.99,,2013-01-20 06:12:00,
2013-01-20 01:22:00,37.0,21.0,29.82,West,267,8.0,-999.0,53,-99.99,,,-99.99,,2013-01-20 06:22:00,
2013-01-20 01:33:00,33.0,15.0,29.85,SW,217,7.0,-999.0,47,-99.99,,,-99.99,,2013-01-20 06:33:00,
2013-01-20 01:42:00,33.0,15.0,29.85,SW,217,7.0,-999.0,47,-99.99,,,-99.99,,2013-01-20 06:42:00,
2013-01-20 01:53:00,32.0,16.0,29.87,West,271,7.0,-999.0,51,-99.99,,,-99.99,,2013-01-20 06:53:00,
2013-01-20 02:02:00,30.0,16.0,29.88,West,278,7.0,-999.0,55,-99.99,,,-99.99,,2013-01-20 07:02:00,
2013-01-20 02:12:00,30.0,16.0,29.88,West,278,7.0,-999.0,55,-99.99,,,-99.99,,2013-01-20 07:12:00,
2013-01-20 02:22:00,29.0,16.0,29.90,West,270,6.0,-999.0,57,-99.99,,,-99.99,,2013-01-20 07:22:00,
2013-01-20 02:32:00,29.0,16.0,29.92,WNW,288,5.0,-999.0,57,-99.99,,,-99.99,,2013-01-20 07:32:00,
2013-01-20 02:42:00,29.0,16.0,29.92,WNW,288,5.0,-999.0,57,-99.99,,,-99.99,,2013-01-20 07:42:00,
2013-01-20 02:52:00,28.0,15.0,29.94,NW,309,7.0,-999.0,58,-99.99,,,-99.99,,2013-01-20 07:52:00,
2013-01-20 03:02:00,27.0,14.0,29.96,West,260,6.0,-999.0,58,-99.99,,,-99.99,,2013-01-20 08:02:00,
2013-01-20 03:12:00,27.0,14.0,29.96,West,260,6.0,-999.0,58,-99.99,,,-99.99,,2013-01-20 08:12:00,
2013-01-20 03:22:00,27.0,14.0,29.98,West,272,7.0,-999.0,58,-99.99,,,-99.99,,2013-01-20 08:22:00,
2013-01-20 03:32:00,26.0,14.0,29.99,WNW,292,5.0,-999.0,61,-99.99,,,-99.99,,2013-01-20 08:32:00,
2013-01-20 03:42:00,26.0,14.0,29.99,WNW,292,5.0,-999.0,61,-99.99,,,-99.99,,2013-01-20 08:42:00,
2013-01-20 03:52:00,25.0,12.0,30.01,West,264,6.0,-999.0,58,-99.99,,,-99.99,,2013-01-20 08:52:00,
2013-01-20 04:02:00,24.0,11.0,30.02,WNW,295,5.0,-999.0,56,-99.99,,,-99.99,,2013-01-20 09:02:00,
2013-01-20 04:12:00,24.0,11.0,30.02,WNW,295,5.0,-999.0,56,-99.99,,,-99.99,,2013-01-20 09:12:00,
2013-01-20 04:22:00,24.0,11.0,30.03,NNW,337,5.0,-999.0,57,-99.99,,,-99.99,,2013-01-20 09:22:00,
2013-01-20 04:33:00,24.0,11.0,30.04,West,264,5.0,-999.0,58,-99.99,,,-99.99,,2013-01-20 09:33:00,
2013-01-20 04:42:00,24.0,11.0,30.04,West,264,5.0,-999.0,58,-99.99,,,-99.99,,2013-01-20 09:42:00,
2013-01-20 04:53:00,24.0,11.0,30.04,North,352,5.0,-999.0,57,-99.99,,,-99.99,,2013-01-20 09:53:00,
2013-01-20 05:02:00,23.0,10.0,30.06,WNW,284,4.0,-999.0,58,-99.99,,,-99.99,,2013-01-20 10:02:00,
2013-01-20 05:12:00,23.0,10.0,30.06,WNW,284,4.0,-999.0,58,-99.99,,,-99.99,,2013-01-20 10:12:00,
2013-01-20 05:22:00,23.0,12.0,30.07,WNW,292,4.0,-999.0,62,-99.99,,,-99.99,,2013-01-20 10:22:00,
2013-01-20 05:32:00,22.0,13.0,30.07,WSW,244,4.0,-999.0,67,-99.99,,,-99.99,,2013-01-20 10:32:00,
2013-01-20 05:42:00,22.0,13.0,30.07,WSW,244,4.0,-999.0,67,-99.99,,,-99.99,,2013-01-20 10:42:00,
2013-01-20 05:52:00,22.0,14.0,30.09,West,265,4.0,-999.0,72,-99.99,,,-99.99,,2013-01-20 10:52:00,
2013-01-20 06:02:00,21.0,14.0,30.09,NW,316,4.0,-999.0,73,-99.99,,,-99.99,,2013-01-20 11:02:00,
2013-01-20 06:12:00,21.0,14.0,30.09,NW,316,4.0,-999.0,73,-99.99,,,-99.99,,2013-01-20 11:12:00,
2013-01-20 06:22:00,21.0,14.0,30.10,NW,305,3.0,-999.0,73,-99.99,,,-99.99,,2013-01-20 11:22:00,
2013-01-20 06:32:00,20.0,12.0,30.11,WSW,248,5.0,-999.0,72,-99.99,,,-99.99,,2013-01-20 11:32:00,
2013-01-20 06:42:00,20.0,12.0,30.11,WSW,248,5.0,-999.0,72,-99.99,,,-99.99,,2013-01-20 11:42:00,
2013-01-20 06:53:00,20.0,11.0,30.12,NNW,339,4.0,-999.0,69,-99.99,,,-99.99,,2013-01-20 11:53:00,
2013-01-20 07:03:00,19.0,12.0,30.14,West,281,4.0,-999.0,74,-99.99,,,-99.99,,2013-01-20 12:03:00,
2013-01-20 07:12:00,19.0,12.0,30.14,West,281,4.0,-999.0,74,-99.99,,,-99.99,,2013-01-20 12:12:00,
2013-01-20 07:23:00,19.0,11.0,30.15,NW,305,4.0,-999.0,71,-99.99,,,-99.99,,2013-01-20 12:23:00,
2013-01-20 07:33:00,18.0,10.0,30.16,NNW,328,3.0,-999.0,71,-99.99,,,-99.99,,2013-01-20 12:33:00,
2013-01-20 07:43:00,18.0,10.0,30.16,NNW,328,3.0,-999.0,71,-99.99,,,-99.99,,2013-01-20 12:43:00,
2013-01-20 07:53:00,18.0,10.0,30.16,WSW,253,4.0,-999.0,71,-99.99,,,-99.99,,2013-01-20 12:53:00,
2013-01-20 08:02:00,18.0,10.0,30.18,North,8,3.0,-999.0,71,-99.99,,,-99.99,,2013-01-20 13:02:00,
2013-01-20 08:12:00,18.0,10.0,30.18,North,8,3.0,-999.0,71,-99.99,,,-99.99,,2013-01-20 13:12:00,
2013-01-20 08:23:00,17.0,8.0,30.19,North,354,4.0,-999.0,68,-99.99,,,-99.99,,2013-01-20 13:23:00,
2013-01-20 08:33:00,17.0,8.0,30.20,WNW,296,3.0,-999.0,68,-99.99,,,-99.99,,2013-01-20 13:33:00,
2013-01-20 08:42:00,17.0,8.0,30.20,WNW,296,3.0,-999.0,68,-99.99,,,-99.99,,2013-01-20 13:42:00,
2013-01-20 08:53:00,17.0,8.0,30.21,West,260,3.0,-999.0,68,-99.99,,,-99.99,,2013-01-20 13:53:00,
2013-01-20 09:02:00,17.0,9.0,30.21,NW,326,3.0,-999.0,70,-99.99,,,-99.99,,2013-01-20 14:02:00,
2013-01-20 09:12:00,17.0,9.0,30.21,NW,326,3.0,-999.0,70,-99.99,,,-99.99,,2013-01-20 14:12:00,
2013-01-20 09:22:00,17.0,9.0,30.23,NE,42,3.0,-999.0,70,-99.99,,,-99.99,,2013-01-20 14:22:00,
2013-01-20 09:32:00,17.0,10.0,30.24,NW,315,3.0,-999.0,72,-99.99,,,-99.99,,2013-01-20 14:32:00,
2013-01-20 09:42:00,17.0,10.0,30.24,NW,315,3.0,-999.0,72,-99.99,,,-99.99,,2013-01-20 14:42:00,
2013-01-20 09:53:00,17.0,10.0,30.24,NW,315,2.0,-999.0,75,-99.99,,,-99.99,,2013-01-20 14:53:00,
2013-01-20 10:03:00,17.0,11.0,30.25,WNW,291,2.0,-999.0,77,-99.99,,,-99.99,,2013-01-20 15:03:00,
2013-01-20 10:12:00,17.0,11.0,30.25,WNW,291,2.0,-999.0,77,-99.99,,,-99.99,,2013-01-20 15:12:00,
2013-01-20 10:23:00,18.0,12.0,30.26,NW,304,2.0,-999.0,77,-99.99,,,-99.99,,2013-01-20 15:23:00,
2013-01-20 10:33:00,18.0,12.0,30.26,North,354,2.0,-999.0,78,-99.99,,,-99.99,,2013-01-20 15:33:00,
2013-01-20 10:42:00,18.0,12.0,30.26,North,354,2.0,-999.0,78,-99.99,,,-99.99,,2013-01-20 15:42:00,
2013-01-20 10:53:00,18.0,12.0,30.27,NW,322,3.0,-999.0,77,-99.99,,,-99.99,,2013-01-20 15:53:00,
2013-01-20 11:02:00,18.0,11.0,30.27,WNW,301,2.0,-999.0,75,-99.99,,,-99.99,,2013-01-20 16:02:00,
2013-01-20 11:12:00,18.0,11.0,30.27,WNW,301,2.0,-999.0,75,-99.99,,,-99.99,,2013-01-20 16:12:00,
2013-01-20 11:23:00,18.0,11.0,30.28,North,354,2.0,-999.0,75,-99.99,,,-99.99,,2013-01-20 16:23:00,
2013-01-20 11:33:00,18.0,12.0,30.28,NW,322,3.0,-999.0,76,-99.99,,,-99.99,,2013-01-20 16:33:00,
2013-01-20 11:42:00,18.0,12.0,30.28,NW,322,3.0,-999.0,76,-99.99,,,-99.99,,2013-01-20 16:42:00,
2013-01-20 11:53:00,18.0,12.0,30.28,WNW,298,2.0,-999.0,77,-99.99,,,-99.99,,2013-01-20 16:53:00,
2013-01-20 12:03:00,18.0,12.0,30.27,WNW,295,2.0,-999.0,78,-99.99,,,-99.99,,2013-01-20 17:03:00,
2013-01-20 12:12:00,18.0,12.0,30.27,WNW,295,2.0,-999.0,78,-99.99,,,-99.99,,2013-01-20 17:12:00,
2013-01-20 12:22:00,18.0,13.0,30.27,NW,315,3.0,-999.0,79,-99.99,,,-99.99,,2013-01-20 17:22:00,
2013-01-20 12:33:00,18.0,12.0,30.26,WSW,246,3.0,-999.0,76,-99.99,,,-99.99,,2013-01-20 17:33:00,
2013-01-20 12:42:00,18.0,12.0,30.26,WSW,246,3.0,-999.0,76,-99.99,,,-99.99,,2013-01-20 17:42:00,
2013-01-20 12:53:00,19.0,12.0,30.25,NW,306,2.0,-999.0,74,-99.99,,,-99.99,,2013-01-20 17:53:00,
2013-01-20 13:02:00,18.0,11.0,30.24,West,264,3.0,-999.0,73,-99.99,,,-99.99,,2013-01-20 18:02:00,
2013-01-20 13:12:00,18.0,11.0,30.25,West,264,3.0,-999.0,73,-99.99,,,-99.99,,2013-01-20 18:12:00,
2013-01-20 13:23:00,18.0,11.0,30.25,West,264,3.0,-999.0,73,-99.99,,,-99.99,,2013-01-20 18:23:00,
2013-01-20 13:33:00,18.0,10.0,30.25,WNW,298,4.0,-999.0,71,-99.99,,,-99.99,,2013-01-20 18:33:00,
2013-01-20 13:43:00,18.0,10.0,30.25,WNW,298,4.0,-999.0,71,-99.99,,,-99.99,,2013-01-20 18:43:00,
2013-01-20 13:53:00,19.0,11.0,30.24,WNW,291,3.0,-999.0,72,-99.99,,,-99.99,,2013-01-20 18:53:00,
2013-01-20 14:02:00,19.0,11.0,30.24,WSW,254,3.0,-999.0,70,-99.99,,,-99.99,,2013-01-20 19:02:00,
2013-01-20 14:12:00,19.0,11.0,30.24,WSW,254,3.0,-999.0,70,-99.99,,,-99.99,,2013-01-20 19:12:00,
2013-01-20 14:22:00,19.0,11.0,30.25,West,261,5.0,-999.0,69,-99.99,,,-99.99,,2013-01-20 19:22:00,
2013-01-20 14:33:00,19.0,11.0,30.25,NW,318,3.0,-999.0,69,-99.99,,,-99.99,,2013-01-20 19:33:00,
2013-01-20 14:42:00,19.0,11.0,30.25,NW,318,3.0,-999.0,69,-99.99,,,-99.99,,2013-01-20 19:42:00,
2013-01-20 14:53:00,19.0,11.0,30.24,WNW,289,3.0,-999.0,70,-99.99,,,-99.99,,2013-01-20 19:53:00,
2013-01-20 15:03:00,19.0,11.0,30.24,West,278,3.0,-999.0,69,-99.99,,,-99.99,,2013-01-20 20:03:00,
2013-01-20 15:12:00,19.0,11.0,30.24,West,278,3.0,-999.0,69,-99.99,,,-99.99,,2013-01-20 20:12:00,
2013-01-20 15:22:00,19.0,11.0,30.24,WNW,295,3.0,-999.0,69,-99.99,,,-99.99,,2013-01-20 20:22:00,
2013-01-20 15:33:00,19.0,11.0,30.25,WNW,282,2.0,-999.0,70,-99.99,,,-99.99,,2013-01-20 20:33:00,
2013-01-20 15:42:00,19.0,11.0,30.25,WNW,282,2.0,-999.0,70,-99.99,,,-99.99,,2013-01-20 20:42:00,
2013-01-20 15:53:00,20.0,12.0,30.24,WSW,241,2.0,-999.0,70,-99.99,,,-99.99,,2013-01-20 20:53:00,
2013-01-20 16:03:00,20.0,12.0,30.25,WNW,294,2.0,-999.0,70,-99.99,,,-99.99,,2013-01-20 21:03:00,
2013-01-20 16:13:00,20.0,12.0,30.25,WNW,294,2.0,-999.0,70,-99.99,,,-99.99,,2013-01-20 21:13:00,
2013-01-20 16:23:00,19.0,11.0,30.24,WNW,284,3.0,-999.0,70,-99.99,,,-99.99,,2013-01-20 21:23:00,
2013-01-20 16:33:00,19.0,11.0,30.24,North,1,2.0,-999.0,70,-99.99,,,-99.99,,2013-01-20 21:33:00,
2013-01-20 16:43:00,19.0,11.0,30.24,North,1,2.0,-999.0,70,-99.99,,,-99.99,,2013-01-20 21:43:00,
2013-01-20 16:53:00,19.0,11.0,30.25,NNW,332,2.0,-999.0,69,-99.99,,,-99.99,,2013-01-20 21:53:00,
2013-01-20 17:03:00,19.0,11.0,30.24,NNW,329,1.0,-999.0,69,-99.99,,,-99.99,,2013-01-20 22:03:00,
2013-01-20 17:12:00,19.0,11.0,30.24,NNW,329,1.0,-999.0,69,-99.99,,,-99.99,,2013-01-20 22:12:00,
2013-01-20 17:22:00,19.0,10.0,30.25,WNW,291,2.0,-999.0,67,-99.99,,,-99.99,,2013-01-20 22:22:00,
2013-01-20 17:33:00,19.0,10.0,30.25,NW,304,2.0,-999.0,67,-99.99,,,-99.99,,2013-01-20 22:33:00,
2013-01-20 17:43:00,19.0,10.0,30.25,NW,304,2.0,-999.0,67,-99.99,,,-99.99,,2013-01-20 22:43:00,
2013-01-20 17:53:00,19.0,10.0,30.25,WNW,287,2.0,-999.0,66,-99.99,,,-99.99,,2013-01-20 22:53:00,
2013-01-20 18:03:00,19.0,10.0,30.25,WNW,287,1.0,-999.0,66,-99.99,,,-99.99,,2013-01-20 23:03:00,
2013-01-20 18:13:00,19.0,10.0,30.25,WNW,287,1.0,-999.0,66,-99.99,,,-99.99,,2013-01-20 23:13:00,
2013-01-20 18:23:00,19.0,10.0,30.25,West,275,1.0,-999.0,67,-99.99,,,-99.99,,2013-01-20 23:23:00,
2013-01-20 18:33:00,19.0,10.0,30.26,West,274,1.0,-999.0,68,-99.99,,,-99.99,,2013-01-20 23:33:00,
2013-01-20 18:42:00,19.0,10.0,30.26,West,274,1.0,-999.0,68,-99.99,,,-99.99,,2013-01-20 23:42:00,
2013-01-20 18:53:00,19.0,10.0,30.25,West,274,1.0,-999.0,68,-99.99,,,-99.99,,2013-01-20 23:53:00,
2013-01-20 19:03:00,19.0,10.0,30.25,West,274,1.0,-999.0,68,-99.99,,,-99.99,,2013-01-21 00:03:00,
2013-01-20 19:13:00,19.0,10.0,30.25,West,274,1.0,-999.0,68,-99.99,,,-99.99,,2013-01-21 00:13:00,
2013-01-20 19:22:00,19.0,10.0,30.26,West,274,1.0,-999.0,67,-99.99,,,-99.99,,2013-01-21 00:22:00,
2013-01-20 19:33:00,19.0,9.0,30.25,West,274,1.0,-999.0,65,-99.99,,,-99.99,,2013-01-21 00:33:00,
2013-01-20 19:43:00,19.0,9.0,30.25,West,274,1.0,-999.0,65,-99.99,,,-99.99,,2013-01-21 00:43:00,
2013-01-20 19:53:00,20.0,10.0,30.25,West,274,1.0,-999.0,64,-99.99,,,-99.99,,2013-01-21 00:53:00,
2013-01-20 20:03:00,20.0,9.0,30.24,West,278,1.0,-999.0,63,-99.99,,,-99.99,,2013-01-21 01:03:00,
2013-01-20 20:12:00,20.0,9.0,30.24,West,278,1.0,-999.0,63,-99.99,,,-99.99,,2013-01-21 01:12:00,
2013-01-20 20:23:00,19.0,9.0,30.24,West,278,1.0,-999.0,64,-99.99,,,-99.99,,2013-01-21 01:23:00,
2013-01-20 20:33:00,19.0,9.0,30.23,West,278,1.0,-999.0,64,-99.99,,,-99.99,,2013-01-21 01:33:00,
2013-01-20 20:43:00,19.0,9.0,30.23,West,278,1.0,-999.0,64,-99.99,,,-99.99,,2013-01-21 01:43:00,
2013-01-20 20:53:00,19.0,9.0,30.24,West,277,1.0,-999.0,63,-99.99,,,-99.99,,2013-01-21 01:53:00,
2013-01-20 21:03:00,20.0,9.0,30.24,West,277,2.0,-999.0,63,-99.99,,,-99.99,,2013-01-21 02:03:00,
2013-01-20 21:12:00,20.0,9.0,30.24,West,277,2.0,-999.0,63,-99.99,,,-99.99,,2013-01-21 02:12:00,
2013-01-20 21:23:00,19.0,9.0,30.23,West,271,2.0,-999.0,63,-99.99,,,-99.99,,2013-01-21 02:23:00,
2013-01-20 21:33:00,19.0,9.0,30.23,West,270,2.0,-999.0,64,-99.99,,,-99.99,,2013-01-21 02:33:00,
2013-01-20 21:43:00,19.0,9.0,30.23,West,270,2.0,-999.0,64,-99.99,,,-99.99,,2013-01-21 02:43:00,
2013-01-20 21:53:00,19.0,9.0,30.22,West,270,2.0,-999.0,65,-99.99,,,-99.99,,2013-01-21 02:53:00,
2013-01-20 22:03:00,19.0,9.0,30.21,West,267,2.0,-999.0,64,-99.99,,,-99.99,,2013-01-21 03:03:00,
2013-01-20 22:12:00,19.0,9.0,30.21,West,267,2.0,-999.0,64,-99.99,,,-99.99,,2013-01-21 03:12:00,
2013-01-20 22:23:00,19.0,8.0,30.21,WSW,258,2.0,-999.0,62,-99.99,,,-99.99,,2013-01-21 03:23:00,
2013-01-20 22:33:00,19.0,9.0,30.21,WSW,258,2.0,-999.0,63,-99.99,,,-99.99,,2013-01-21 03:33:00,
2013-01-20 22:43:00,19.0,9.0,30.21,WSW,258,2.0,-999.0,63,-99.99,,,-99.99,,2013-01-21 03:43:00,
2013-01-20 22:53:00,19.0,9.0,30.20,WSW,258,2.0,-999.0,63,-99.99,,,-99.99,,2013-01-21 03:53:00,
2013-01-20 23:03:00,19.0,9.0,30.20,WSW,258,2.0,-999.0,63,-99.99,,,-99.99,,2013-01-21 04:03:00,
2013-01-20 23:12:00,19.0,9.0,30.20,WSW,258,2.0,-999.0,63,-99.99,,,-99.99,,2013-01-21 04:12:00,
2013-01-20 23:23:00,19.0,9.0,30.19,WSW,251,2.0,-999.0,63,-99.99,,,-99.99,,2013-01-21 04:23:00,
2013-01-20 23:32:00,19.0,9.0,30.19,WSW,246,2.0,-999.0,63,-99.99,,,-99.99,,2013-01-21 04:32:00,
2013-01-20 23:42:00,19.0,9.0,30.19,WSW,246,2.0,-999.0,63,-99.99,,,-99.99,,2013-01-21 04:42:00,
2013-01-20 23:53:00,19.0,9.0,30.19,WSW,246,2.0,-999.0,63,-99.99,,,-99.99,,2013-01-21 04:53:00,